Latest Weather Observations for Kurnell

IDN60801

Issued at 1:36 am EST Tuesday 26 July 2016 (issued every 30 minutes, with the page automatically refreshed every 10 minutes)

About weather observations | Map of weather stations | Latest weather observations for NSW | Other Formats
Station Details ID: 066043 Name: KURNELL AWS Lat: -34.00 Lon: 151.21 Height: 4.0 m
Data from the previous 72 hours. | See also: Recent months for locations in New South Wales
Date/Time
EST
Temp
°C
App
Temp
°C
Dew
Point
°C
Rel
Hum
%
Delta-T
°C
Wind Press
QNH
hPa
Press
MSL
hPa
Rain since
9am
mm
Dir  Spd
km/h
Gust
km/h
Spd
kts
Gust
kts
26/01:30am - - - - - N 17 20 9 11 - - -
26/01:00am - - - - - N 19 24 10 13 - - -
26/12:30am - - - - - N 17 26 9 14 - - -
26/12:00am - - - - - NNW 17 20 9 11 - - -
 
Date/Time
EST
Temp
°C
App
Temp
°C
Dew
Point
°C
Rel
Hum
%
Delta-T
°C
Wind Press
QNH
hPa
Press
MSL
hPa
Rain since
9am
mm
Dir  Spd
km/h
Gust
km/h
Spd
kts
Gust
kts
25/11:30pm - - - - - NNW 22 28 12 15 - - -
25/11:00pm - - - - - NNW 20 30 11 16 - - -
25/10:30pm - - - - - NW 26 32 14 17 - - -
25/10:00pm - - - - - NNW 22 30 12 16 - - -
25/09:30pm - - - - - NNW 22 32 12 17 - - -
25/09:00pm - - - - - N 17 24 9 13 - - -
25/08:30pm - - - - - N 20 32 11 17 - - -
25/08:00pm - - - - - NNW 28 33 15 18 - - -
25/07:30pm - - - - - NW 39 48 21 26 - - -
25/07:00pm - - - - - NW 41 48 22 26 - - -
25/06:30pm - - - - - NW 30 39 16 21 - - -
25/06:00pm - - - - - WNW 37 48 20 26 - - -
25/05:30pm - - - - - WNW 28 35 15 19 - - -
25/05:00pm - - - - - WNW 37 44 20 24 - - -
25/04:30pm - - - - - WNW 32 39 17 21 - - -
25/04:00pm - - - - - WNW 33 43 18 23 - - -
25/03:30pm - - - - - WNW 35 46 19 25 - - -
25/03:00pm - - - - - WNW 30 39 16 21 - - -
25/02:30pm - - - - - W 28 33 15 18 - - -
25/02:00pm - - - - - W 35 41 19 22 - - -
25/01:30pm - - - - - WNW 26 39 14 21 - - -
25/01:00pm - - - - - W 26 32 14 17 - - -
25/12:30pm - - - - - W 30 37 16 20 - - -
25/12:00pm - - - - - W 35 48 19 26 - - -
25/11:55am - - - - - W 35 48 19 26 - - -
25/11:30am - - - - - WNW 24 30 13 16 - - -
25/11:00am - - - - - W 30 39 16 21 - - -
25/10:30am - - - - - W 32 39 17 21 - - -
25/10:28am - - - - - W 32 39 17 21 - - -
25/10:00am - - - - - NW 37 44 20 24 - - -
25/09:30am - - - - - NW 28 37 15 20 - - -
25/09:00am - - - - - NNW 30 37 16 20 - - -
25/08:30am - - - - - N 15 20 8 11 - - -
25/08:00am - - - - - N 13 17 7 9 - - -
25/07:30am - - - - - N 13 15 7 8 - - -
25/07:00am - - - - - N 15 19 8 10 - - -
25/06:30am - - - - - N 11 13 6 7 - - -
25/06:00am - - - - - N 13 17 7 9 - - -
25/05:30am - - - - - NNW 15 22 8 12 - - -
25/05:00am - - - - - NW 17 22 9 12 - - -
25/04:30am - - - - - WNW 19 26 10 14 - - -
25/04:00am - - - - - W 19 26 10 14 - - -
25/03:30am - - - - - WNW 20 24 11 13 - - -
25/03:00am - - - - - NNW 20 26 11 14 - - -
25/02:30am - - - - - NNW 22 28 12 15 - - -
25/02:00am - - - - - NNW 22 30 12 16 - - -
25/01:30am - - - - - NNW 24 32 13 17 - - -
25/01:00am - - - - - NNW 24 30 13 16 - - -
25/12:30am - - - - - N 26 32 14 17 - - -
25/12:00am - - - - - N 28 33 15 18 - - -
 
Date/Time
EST
Temp
°C
App
Temp
°C
Dew
Point
°C
Rel
Hum
%
Delta-T
°C
Wind Press
QNH
hPa
Press
MSL
hPa
Rain since
9am
mm
Dir  Spd
km/h
Gust
km/h
Spd
kts
Gust
kts
24/11:30pm - - - - - N 26 32 14 17 - - -
24/11:00pm - - - - - N 24 32 13 17 - - -
24/10:30pm - - - - - N 24 30 13 16 - - -
24/10:00pm - - - - - N 26 32 14 17 - - -
24/09:30pm - - - - - N 22 30 12 16 - - -
24/09:00pm - - - - - N 24 28 13 15 - - -
24/08:30pm - - - - - N 20 28 11 15 - - -
24/08:00pm - - - - - NNW 17 24 9 13 - - -
24/07:30pm - - - - - N 19 24 10 13 - - -
24/07:00pm - - - - - N 19 22 10 12 - - -
24/06:30pm - - - - - N 20 26 11 14 - - -
24/06:00pm - - - - - NNW 22 28 12 15 - - -
24/05:30pm - - - - - NNW 24 28 13 15 - - -
24/05:00pm - - - - - WNW 19 24 10 13 - - -
24/04:30pm - - - - - W 15 20 8 11 - - -
24/04:00pm - - - - - NW 22 30 12 16 - - -
24/03:30pm - - - - - WNW 24 32 13 17 - - -
24/03:00pm - - - - - NW 24 30 13 16 - - -
24/02:30pm - - - - - NW 24 30 13 16 - - -
24/02:00pm - - - - - WNW 28 33 15 18 - - -
24/01:30pm - - - - - WNW 30 37 16 20 - - -
24/01:00pm - - - - - WNW 32 39 17 21 - - -
24/12:30pm - - - - - WNW 32 37 17 20 - - -
24/12:00pm - - - - - WNW 32 39 17 21 - - -
24/11:30am - - - - - WNW 30 35 16 19 - - -
24/11:00am - - - - - WNW 28 33 15 18 - - -
24/10:30am - - - - - WNW 28 33 15 18 - - -
24/10:00am - - - - - WNW 28 35 15 19 - - -
24/09:30am - - - - - WNW 28 32 15 17 - - -
24/09:00am - - - - - WNW 30 33 16 18 - - -
24/08:30am - - - - - WNW 32 35 17 19 - - -
24/08:00am - - - - - WNW 30 33 16 18 - - -
24/07:30am - - - - - WNW 32 33 17 18 - - -
24/07:00am - - - - - WNW 28 32 15 17 - - -
24/06:30am - - - - - WNW 33 41 18 22 - - -
24/06:00am - - - - - NW 32 35 17 19 - - -
24/05:30am - - - - - WNW 32 39 17 21 - - -
24/05:00am - - - - - WNW 32 35 17 19 - - -
24/04:30am - - - - - WNW 32 35 17 19 - - -
24/04:00am - - - - - W 33 37 18 20 - - -
24/03:30am - - - - - WNW 30 35 16 19 - - -
24/03:00am - - - - - WNW 32 37 17 20 - - -
24/02:30am - - - - - WNW 28 33 15 18 - - -
24/02:00am - - - - - WNW 26 33 14 18 - - -
24/01:30am - - - - - SW 19 24 10 13 - - -
24/01:00am - - - - - SW 20 26 11 14 - - -
24/12:30am - - - - - SW 26 32 14 17 - - -
24/12:00am - - - - - SW 22 28 12 15 - - -
 
Date/Time
EST
Temp
°C
App
Temp
°C
Dew
Point
°C
Rel
Hum
%
Delta-T
°C
Wind Press
QNH
hPa
Press
MSL
hPa
Rain since
9am
mm
Dir  Spd
km/h
Gust
km/h
Spd
kts
Gust
kts
23/11:30pm - - - - - SW 24 30 13 16 - - -
23/11:00pm - - - - - SW 20 26 11 14 - - -
23/10:30pm - - - - - SW 22 28 12 15 - - -
23/10:00pm - - - - - SW 22 30 12 16 - - -
23/09:30pm - - - - - SW 15 19 8 10 - - -
23/09:00pm - - - - - SW 17 22 9 12 - - -
23/08:30pm - - - - - WSW 19 24 10 13 - - -
23/08:00pm - - - - - WSW 24 32 13 17 - - -
23/07:30pm - - - - - W 35 44 19 24 - - -
23/07:18pm - - - - - WSW 32 52 17 28 - - -
23/07:00pm - - - - - WSW 22 28 12 15 - - -
23/06:30pm - - - - - WSW 26 35 14 19 - - -
23/06:00pm - - - - - WSW 26 30 14 16 - - -
23/05:30pm - - - - - WSW 28 37 15 20 - - -
23/05:00pm - - - - - W 35 48 19 26 - - -
23/04:30pm - - - - - W 44 65 24 35 - - -
23/04:06pm - - - - - W 41 59 22 32 - - -
23/04:00pm - - - - - W 44 61 24 33 - - -
23/03:37pm - - - - - W 48 67 26 36 - - -
23/03:30pm - - - - - W 52 67 28 36 - - -
23/03:01pm - - - - - W 46 65 25 35 - - -
23/03:00pm - - - - - W 46 61 25 33 - - -
23/02:47pm - - - - - W 43 61 23 33 - - -
23/02:30pm - - - - - W 39 52 21 28 - - -
23/02:00pm - - - - - WNW 39 52 21 28 - - -
23/01:30pm - - - - - WNW 39 52 21 28 - - -
23/01:00pm - - - - - WNW 44 54 24 29 - - -
23/12:30pm - - - - - WNW 39 48 21 26 - - -
23/12:24pm - - - - - W 39 48 21 26 - - -
23/12:00pm - - - - - NW 44 56 24 30 - - -
23/11:30am - - - - - WNW 50 61 27 33 - - -
23/11:19am - - - - - WNW 46 65 25 35 - - -
23/11:00am - - - - - WNW 46 59 25 32 - - -
23/10:30am - - - - - WNW 43 52 23 28 - - -
23/10:13am - - - - - WNW 44 63 24 34 - - -
23/10:00am - - - - - WNW 48 63 26 34 - - -
23/09:54am - - - - - WNW 43 63 23 34 - - -
23/09:30am - - - - - WNW 41 52 22 28 - - -
23/09:00am - - - - - WNW 48 74 26 40 - - -
23/08:36am - - - - - WNW 37 63 20 34 - - -
23/08:30am - - - - - WNW 30 37 16 20 - - -
23/08:00am - - - - - W 30 35 16 19 - - -
23/07:30am - - - - - W 33 39 18 21 - - -
23/07:00am - - - - - WNW 33 48 18 26 - - -
23/06:30am - - - - - WNW 39 52 21 28 - - -
23/06:00am - - - - - WNW 46 57 25 31 - - -
23/05:30am - - - - - W 44 57 24 31 - - -
23/05:22am - - - - - WNW 35 54 19 29 - - -
23/05:00am - - - - - NW 26 35 14 19 - - -
23/04:30am - - - - - WNW 33 41 18 22 - - -
23/04:00am - - - - - WNW 30 35 16 19 - - -
23/03:30am - - - - - W 39 54 21 29 - - -
23/03:21am - - - - - WNW 35 48 19 26 - - -
23/03:00am - - - - - WNW 24 28 13 15 - - -
23/02:30am - - - - - WNW 26 30 14 16 - - -
23/02:00am - - - - - W 30 35 16 19 - - -

Other Formats:

Comma delimited format used in spreadsheet applications
http://www.bom.gov.au/fwo/IDN60801/IDN60801.95756.axf

JavaScript Object Notation format (JSON) in row-major order
http://www.bom.gov.au/fwo/IDN60801/IDN60801.95756.json